sensor_id;sensor_type;location;lat;lon;timestamp;pressure;altitude;pressure_sealevel;temperature;humidity
79374;BME280;68844;53.128;17.958;2023-10-13T00:00:34;101083.92;;;4.54;86.12
79374;BME280;68844;53.128;17.958;2023-10-13T00:03:27;101086.11;;;4.50;86.48
79374;BME280;68844;53.128;17.958;2023-10-13T00:05:58;101085.52;;;4.47;86.22
79374;BME280;68844;53.128;17.958;2023-10-13T00:08:29;101087.35;;;4.42;85.89
79374;BME280;68844;53.128;17.958;2023-10-13T00:10:56;101087.85;;;4.44;85.88
79374;BME280;68844;53.128;17.958;2023-10-13T00:13:30;101088.06;;;4.42;85.98
79374;BME280;68844;53.128;17.958;2023-10-13T00:16:07;101091.38;;;4.36;86.04
79374;BME280;68844;53.128;17.958;2023-10-13T00:18:37;101091.30;;;4.32;86.50
79374;BME280;68844;53.128;17.958;2023-10-13T00:21:11;101090.00;;;4.28;86.27
79374;BME280;68844;53.128;17.958;2023-10-13T00:23:42;101094.15;;;4.29;86.09
79374;BME280;68844;53.128;17.958;2023-10-13T00:26:35;101093.29;;;4.29;86.53
79374;BME280;68844;53.128;17.958;2023-10-13T00:29:03;101097.89;;;4.27;86.57
79374;BME280;68844;53.128;17.958;2023-10-13T00:31:40;101101.44;;;4.24;86.45
79374;BME280;68844;53.128;17.958;2023-10-13T00:34:09;101101.66;;;4.22;86.24
79374;BME280;68844;53.128;17.958;2023-10-13T00:36:40;101101.03;;;4.20;86.19
79374;BME280;68844;53.128;17.958;2023-10-13T00:39:36;101103.95;;;4.15;86.36
79374;BME280;68844;53.128;17.958;2023-10-13T00:42:06;101100.58;;;4.10;86.53
79374;BME280;68844;53.128;17.958;2023-10-13T00:44:34;101097.20;;;4.06;86.33
79374;BME280;68844;53.128;17.958;2023-10-13T00:47:16;101098.65;;;4.02;86.36
79374;BME280;68844;53.128;17.958;2023-10-13T00:50:05;101099.38;;;4.02;86.15
79374;BME280;68844;53.128;17.958;2023-10-13T00:52:33;101098.35;;;4.01;86.48
79374;BME280;68844;53.128;17.958;2023-10-13T00:55:02;101104.69;;;3.99;86.31
79374;BME280;68844;53.128;17.958;2023-10-13T00:57:31;101107.73;;;3.95;86.03
79374;BME280;68844;53.128;17.958;2023-10-13T00:59:58;101103.47;;;3.91;86.11
79374;BME280;68844;53.128;17.958;2023-10-13T01:02:26;101109.02;;;3.92;86.10
79374;BME280;68844;53.128;17.958;2023-10-13T01:05:05;101111.51;;;3.90;86.11
79374;BME280;68844;53.128;17.958;2023-10-13T01:07:36;101118.41;;;3.86;86.09
79374;BME280;68844;53.128;17.958;2023-10-13T01:10:10;101118.26;;;3.85;86.15
79374;BME280;68844;53.128;17.958;2023-10-13T01:12:41;101115.77;;;3.87;86.35
79374;BME280;68844;53.128;17.958;2023-10-13T01:15:13;101116.42;;;3.96;86.79
79374;BME280;68844;53.128;17.958;2023-10-13T01:17:47;101113.46;;;4.03;86.83
79374;BME280;68844;53.128;17.958;2023-10-13T01:20:15;101108.15;;;4.07;86.96
79374;BME280;68844;53.128;17.958;2023-10-13T01:22:51;101107.35;;;4.11;87.59
79374;BME280;68844;53.128;17.958;2023-10-13T01:25:25;101102.87;;;4.16;87.14
79374;BME280;68844;53.128;17.958;2023-10-13T01:27:56;101101.39;;;4.20;87.13
79374;BME280;68844;53.128;17.958;2023-10-13T01:30:23;101099.19;;;4.17;87.17
79374;BME280;68844;53.128;17.958;2023-10-13T01:32:53;101094.95;;;4.12;87.28
79374;BME280;68844;53.128;17.958;2023-10-13T01:35:20;101092.98;;;4.07;87.11
79374;BME280;68844;53.128;17.958;2023-10-13T01:37:52;101090.49;;;4.02;86.93
79374;BME280;68844;53.128;17.958;2023-10-13T01:40:18;101094.72;;;4.00;86.60
79374;BME280;68844;53.128;17.958;2023-10-13T01:42:48;101089.89;;;3.98;86.77
79374;BME280;68844;53.128;17.958;2023-10-13T01:45:22;101096.99;;;3.93;86.81
79374;BME280;68844;53.128;17.958;2023-10-13T01:47:53;101092.75;;;3.88;86.28
79374;BME280;68844;53.128;17.958;2023-10-13T01:50:19;101095.28;;;3.84;86.49
79374;BME280;68844;53.128;17.958;2023-10-13T01:52:56;101096.00;;;3.83;86.22
79374;BME280;68844;53.128;17.958;2023-10-13T01:55:39;101092.59;;;3.81;86.51
79374;BME280;68844;53.128;17.958;2023-10-13T01:58:14;101091.27;;;3.77;86.15
79374;BME280;68844;53.128;17.958;2023-10-13T02:00:49;101087.54;;;3.74;86.42
79374;BME280;68844;53.128;17.958;2023-10-13T02:03:16;101085.90;;;3.69;86.36
79374;BME280;68844;53.128;17.958;2023-10-13T02:05:45;101089.45;;;3.65;86.05
79374;BME280;68844;53.128;17.958;2023-10-13T02:08:17;101083.67;;;3.67;86.24
79374;BME280;68844;53.128;17.958;2023-10-13T02:10:55;101084.21;;;3.67;86.31
79374;BME280;68844;53.128;17.958;2023-10-13T02:13:23;101080.30;;;3.63;86.23
79374;BME280;68844;53.128;17.958;2023-10-13T02:15:55;101078.99;;;3.59;86.39
79374;BME280;68844;53.128;17.958;2023-10-13T02:18:30;101079.78;;;3.55;86.43
79374;BME280;68844;53.128;17.958;2023-10-13T02:21:08;101083.20;;;3.57;86.26
79374;BME280;68844;53.128;17.958;2023-10-13T02:23:42;101082.89;;;3.56;86.40
79374;BME280;68844;53.128;17.958;2023-10-13T02:26:12;101084.67;;;3.54;86.45
79374;BME280;68844;53.128;17.958;2023-10-13T02:28:42;101083.45;;;3.54;86.66
79374;BME280;68844;53.128;17.958;2023-10-13T02:31:17;101081.21;;;3.52;86.62
79374;BME280;68844;53.128;17.958;2023-10-13T02:33:46;101079.13;;;3.52;86.71
79374;BME280;68844;53.128;17.958;2023-10-13T02:36:13;101079.48;;;3.52;86.66
79374;BME280;68844;53.128;17.958;2023-10-13T02:38:46;101084.33;;;3.53;86.75
79374;BME280;68844;53.128;17.958;2023-10-13T02:41:17;101089.31;;;3.49;86.45
79374;BME280;68844;53.128;17.958;2023-10-13T02:43:53;101092.14;;;3.47;86.51
79374;BME280;68844;53.128;17.958;2023-10-13T02:46:21;101088.66;;;3.47;86.64
79374;BME280;68844;53.128;17.958;2023-10-13T02:48:49;101093.11;;;3.50;86.45
79374;BME280;68844;53.128;17.958;2023-10-13T02:51:24;101089.39;;;3.53;86.46
79374;BME280;68844;53.128;17.958;2023-10-13T02:54:04;101086.23;;;3.54;87.13
79374;BME280;68844;53.128;17.958;2023-10-13T02:56:58;101086.63;;;3.52;86.90
79374;BME280;68844;53.128;17.958;2023-10-13T02:59:26;101089.56;;;3.53;87.11
79374;BME280;68844;53.128;17.958;2023-10-13T03:02:13;101084.83;;;3.55;87.14
79374;BME280;68844;53.128;17.958;2023-10-13T03:04:56;101094.69;;;3.57;86.56
79374;BME280;68844;53.128;17.958;2023-10-13T03:07:27;101091.66;;;3.53;86.47
79374;BME280;68844;53.128;17.958;2023-10-13T03:09:58;101100.13;;;3.49;86.84
79374;BME280;68844;53.128;17.958;2023-10-13T03:12:27;101100.00;;;3.45;86.71
79374;BME280;68844;53.128;17.958;2023-10-13T03:15:00;101100.02;;;3.45;86.80
79374;BME280;68844;53.128;17.958;2023-10-13T03:17:53;101100.99;;;3.48;86.61
79374;BME280;68844;53.128;17.958;2023-10-13T03:20:21;101103.52;;;3.51;86.73
79374;BME280;68844;53.128;17.958;2023-10-13T03:22:58;101100.72;;;3.53;87.19
79374;BME280;68844;53.128;17.958;2023-10-13T03:25:26;101105.04;;;3.55;86.84
79374;BME280;68844;53.128;17.958;2023-10-13T03:27:56;101101.12;;;3.58;87.22
79374;BME280;68844;53.128;17.958;2023-10-13T03:30:23;101095.85;;;3.60;86.47
79374;BME280;68844;53.128;17.958;2023-10-13T03:32:57;101096.27;;;3.64;86.63
79374;BME280;68844;53.128;17.958;2023-10-13T03:35:24;101092.38;;;3.68;86.63
79374;BME280;68844;53.128;17.958;2023-10-13T03:37:51;101090.10;;;3.68;86.58
79374;BME280;68844;53.128;17.958;2023-10-13T03:40:19;101086.58;;;3.70;87.06
79374;BME280;68844;53.128;17.958;2023-10-13T03:42:47;101094.21;;;3.70;87.01
79374;BME280;68844;53.128;17.958;2023-10-13T03:45:34;101089.40;;;3.68;86.81
79374;BME280;68844;53.128;17.958;2023-10-13T03:48:09;101090.54;;;3.70;86.57
79374;BME280;68844;53.128;17.958;2023-10-13T03:50:38;101086.20;;;3.70;86.48
79374;BME280;68844;53.128;17.958;2023-10-13T03:53:14;101080.73;;;3.67;86.97
79374;BME280;68844;53.128;17.958;2023-10-13T03:55:41;101080.75;;;3.66;86.53
79374;BME280;68844;53.128;17.958;2023-10-13T03:58:15;101083.90;;;3.65;86.60
79374;BME280;68844;53.128;17.958;2023-10-13T04:00:43;101089.08;;;3.67;86.20
79374;BME280;68844;53.128;17.958;2023-10-13T04:03:10;101092.11;;;3.71;86.56
79374;BME280;68844;53.128;17.958;2023-10-13T04:05:42;101093.98;;;3.73;86.78
79374;BME280;68844;53.128;17.958;2023-10-13T04:08:27;101092.50;;;3.76;87.01
79374;BME280;68844;53.128;17.958;2023-10-13T04:10:55;101086.37;;;3.78;86.85
79374;BME280;68844;53.128;17.958;2023-10-13T04:13:23;101084.39;;;3.82;86.78
79374;BME280;68844;53.128;17.958;2023-10-13T04:16:09;101083.39;;;3.86;86.94
79374;BME280;68844;53.128;17.958;2023-10-13T04:19:02;101077.83;;;3.86;86.94
79374;BME280;68844;53.128;17.958;2023-10-13T04:21:28;101082.41;;;3.83;87.28
79374;BME280;68844;53.128;17.958;2023-10-13T04:24:14;101080.24;;;3.86;87.31
79374;BME280;68844;53.128;17.958;2023-10-13T04:26:51;101071.15;;;3.88;87.35
79374;BME280;68844;53.128;17.958;2023-10-13T04:29:38;101060.77;;;3.99;87.35
79374;BME280;68844;53.128;17.958;2023-10-13T04:32:15;101063.71;;;4.07;87.63
79374;BME280;68844;53.128;17.958;2023-10-13T04:34:56;101061.50;;;4.11;87.18
79374;BME280;68844;53.128;17.958;2023-10-13T04:37:25;101063.40;;;4.13;87.35
79374;BME280;68844;53.128;17.958;2023-10-13T04:40:14;101063.14;;;4.16;87.45
79374;BME280;68844;53.128;17.958;2023-10-13T04:42:44;101068.21;;;4.22;87.25
79374;BME280;68844;53.128;17.958;2023-10-13T04:45:17;101072.14;;;4.25;87.34
79374;BME280;68844;53.128;17.958;2023-10-13T04:48:00;101073.34;;;4.26;87.62
79374;BME280;68844;53.128;17.958;2023-10-13T04:50:47;101070.85;;;4.27;87.10
79374;BME280;68844;53.128;17.958;2023-10-13T04:53:18;101061.96;;;4.27;87.19
79374;BME280;68844;53.128;17.958;2023-10-13T04:55:57;101058.73;;;4.24;86.90
79374;BME280;68844;53.128;17.958;2023-10-13T04:58:30;101056.77;;;4.26;86.99
79374;BME280;68844;53.128;17.958;2023-10-13T05:01:04;101060.60;;;4.26;87.21
79374;BME280;68844;53.128;17.958;2023-10-13T05:03:50;101060.88;;;4.28;87.23
79374;BME280;68844;53.128;17.958;2023-10-13T05:06:32;101055.91;;;4.32;87.11
79374;BME280;68844;53.128;17.958;2023-10-13T05:09:11;101055.27;;;4.36;86.96
79374;BME280;68844;53.128;17.958;2023-10-13T05:11:58;101048.72;;;4.40;86.77
79374;BME280;68844;53.128;17.958;2023-10-13T05:14:43;101055.02;;;4.46;87.06
79374;BME280;68844;53.128;17.958;2023-10-13T05:17:29;101059.46;;;4.49;87.21
79374;BME280;68844;53.128;17.958;2023-10-13T05:20:14;101061.67;;;4.52;86.72
79374;BME280;68844;53.128;17.958;2023-10-13T05:23:00;101064.94;;;4.53;86.62
79374;BME280;68844;53.128;17.958;2023-10-13T05:25:45;101069.21;;;4.62;86.57
79374;BME280;68844;53.128;17.958;2023-10-13T05:28:31;101076.09;;;4.72;86.54
79374;BME280;68844;53.128;17.958;2023-10-13T05:31:16;101076.45;;;4.78;86.64
79374;BME280;68844;53.128;17.958;2023-10-13T05:34:01;101078.36;;;4.85;86.49
79374;BME280;68844;53.128;17.958;2023-10-13T05:36:47;101077.20;;;4.89;86.46
79374;BME280;68844;53.128;17.958;2023-10-13T05:39:32;101077.20;;;5.01;86.57
79374;BME280;68844;53.128;17.958;2023-10-13T05:42:18;101072.22;;;5.22;86.33
79374;BME280;68844;53.128;17.958;2023-10-13T05:45:04;101071.27;;;5.30;86.58
79374;BME280;68844;53.128;17.958;2023-10-13T05:47:50;101064.92;;;5.38;86.73
79374;BME280;68844;53.128;17.958;2023-10-13T05:50:27;101060.59;;;5.42;86.42
79374;BME280;68844;53.128;17.958;2023-10-13T05:52:55;101058.73;;;5.52;86.20
79374;BME280;68844;53.128;17.958;2023-10-13T05:55:27;101056.27;;;5.63;86.50
79374;BME280;68844;53.128;17.958;2023-10-13T05:58:12;101049.75;;;5.70;87.28
79374;BME280;68844;53.128;17.958;2023-10-13T06:00:59;101054.85;;;5.75;87.24
79374;BME280;68844;53.128;17.958;2023-10-13T06:03:44;101053.64;;;5.96;87.25
79374;BME280;68844;53.128;17.958;2023-10-13T06:06:30;101056.15;;;6.25;86.77
79374;BME280;68844;53.128;17.958;2023-10-13T06:09:15;101056.73;;;6.49;86.77
79374;BME280;68844;53.128;17.958;2023-10-13T06:12:01;101058.56;;;6.66;86.94
79374;BME280;68844;53.128;17.958;2023-10-13T06:14:46;101064.89;;;6.61;86.39
79374;BME280;68844;53.128;17.958;2023-10-13T06:17:32;101060.98;;;6.62;86.45
79374;BME280;68844;53.128;17.958;2023-10-13T06:20:17;101069.84;;;6.73;86.83
79374;BME280;68844;53.128;17.958;2023-10-13T06:23:03;101072.08;;;6.84;86.99
79374;BME280;68844;53.128;17.958;2023-10-13T06:25:52;101077.55;;;7.02;86.32
79374;BME280;68844;53.128;17.958;2023-10-13T06:28:38;101078.02;;;7.08;86.09
79374;BME280;68844;53.128;17.958;2023-10-13T06:31:10;101080.54;;;7.20;86.19
79374;BME280;68844;53.128;17.958;2023-10-13T06:33:52;101082.77;;;7.27;86.17
79374;BME280;68844;53.128;17.958;2023-10-13T06:36:22;101082.55;;;7.37;85.97
79374;BME280;68844;53.128;17.958;2023-10-13T06:38:48;101081.77;;;7.43;85.46
79374;BME280;68844;53.128;17.958;2023-10-13T06:41:21;101079.14;;;7.48;85.76
79374;BME280;68844;53.128;17.958;2023-10-13T06:43:57;101076.23;;;7.51;85.70
79374;BME280;68844;53.128;17.958;2023-10-13T06:46:27;101073.56;;;7.56;85.49
79374;BME280;68844;53.128;17.958;2023-10-13T06:48:55;101073.09;;;7.68;85.46
79374;BME280;68844;53.128;17.958;2023-10-13T06:51:26;101068.64;;;7.86;85.25
79374;BME280;68844;53.128;17.958;2023-10-13T06:53:58;101068.60;;;8.05;84.78
79374;BME280;68844;53.128;17.958;2023-10-13T06:56:24;101068.89;;;8.31;84.50
79374;BME280;68844;53.128;17.958;2023-10-13T06:58:55;101068.52;;;8.40;84.53
79374;BME280;68844;53.128;17.958;2023-10-13T07:01:33;101059.62;;;8.47;84.76
79374;BME280;68844;53.128;17.958;2023-10-13T07:04:09;101058.08;;;8.38;84.66
79374;BME280;68844;53.128;17.958;2023-10-13T07:06:43;101053.48;;;8.44;85.01
79374;BME280;68844;53.128;17.958;2023-10-13T07:09:16;101061.52;;;8.56;85.13
79374;BME280;68844;53.128;17.958;2023-10-13T07:12:06;101059.73;;;8.72;85.12
79374;BME280;68844;53.128;17.958;2023-10-13T07:14:35;101052.42;;;8.75;84.64
79374;BME280;68844;53.128;17.958;2023-10-13T07:17:07;101050.96;;;8.80;84.47
79374;BME280;68844;53.128;17.958;2023-10-13T07:19:35;101053.19;;;8.89;84.21
79374;BME280;68844;53.128;17.958;2023-10-13T07:22:02;101052.67;;;9.01;84.70
79374;BME280;68844;53.128;17.958;2023-10-13T07:24:49;101049.25;;;9.10;84.34
79374;BME280;68844;53.128;17.958;2023-10-13T07:27:20;101044.60;;;9.23;84.19
79374;BME280;68844;53.128;17.958;2023-10-13T07:29:55;101045.35;;;9.44;84.14
79374;BME280;68844;53.128;17.958;2023-10-13T07:32:41;101046.61;;;9.69;83.99
79374;BME280;68844;53.128;17.958;2023-10-13T07:35:19;101038.27;;;9.82;84.10
79374;BME280;68844;53.128;17.958;2023-10-13T07:37:53;101042.92;;;9.90;83.89
79374;BME280;68844;53.128;17.958;2023-10-13T07:40:23;101037.89;;;9.99;83.70
79374;BME280;68844;53.128;17.958;2023-10-13T07:42:57;101034.84;;;10.08;83.17
79374;BME280;68844;53.128;17.958;2023-10-13T07:45:40;101034.14;;;10.19;83.03
79374;BME280;68844;53.128;17.958;2023-10-13T07:48:11;101023.14;;;10.30;83.36
79374;BME280;68844;53.128;17.958;2023-10-13T07:51:08;101021.65;;;10.32;83.50
79374;BME280;68844;53.128;17.958;2023-10-13T07:53:40;101016.02;;;10.32;83.46
79374;BME280;68844;53.128;17.958;2023-10-13T07:56:07;101014.34;;;10.37;83.60
79374;BME280;68844;53.128;17.958;2023-10-13T07:58:40;101007.57;;;10.46;83.19
79374;BME280;68844;53.128;17.958;2023-10-13T08:01:19;101001.92;;;10.59;83.24
79374;BME280;68844;53.128;17.958;2023-10-13T08:03:46;100992.30;;;10.77;82.91
79374;BME280;68844;53.128;17.958;2023-10-13T08:06:18;100985.42;;;10.74;82.62
79374;BME280;68844;53.128;17.958;2023-10-13T08:08:46;100980.63;;;10.78;82.77
79374;BME280;68844;53.128;17.958;2023-10-13T08:11:17;100973.34;;;10.86;82.31
79374;BME280;68844;53.128;17.958;2023-10-13T08:13:51;100971.48;;;10.88;82.45
79374;BME280;68844;53.128;17.958;2023-10-13T08:16:23;100967.91;;;10.85;82.00
79374;BME280;68844;53.128;17.958;2023-10-13T08:18:56;100965.13;;;10.91;81.96
79374;BME280;68844;53.128;17.958;2023-10-13T08:21:22;100960.20;;;11.01;81.94
79374;BME280;68844;53.128;17.958;2023-10-13T08:23:50;100956.01;;;11.12;81.96
79374;BME280;68844;53.128;17.958;2023-10-13T08:26:21;100958.95;;;11.19;81.02
79374;BME280;68844;53.128;17.958;2023-10-13T08:29:03;100960.86;;;11.26;81.59
79374;BME280;68844;53.128;17.958;2023-10-13T08:31:46;100961.46;;;11.38;81.07
79374;BME280;68844;53.128;17.958;2023-10-13T08:34:36;100961.84;;;11.40;80.70
79374;BME280;68844;53.128;17.958;2023-10-13T08:37:27;100954.11;;;11.37;80.97
79374;BME280;68844;53.128;17.958;2023-10-13T08:39:55;100955.90;;;11.48;81.35
79374;BME280;68844;53.128;17.958;2023-10-13T08:47:56;100942.04;;;11.95;80.62
79374;BME280;68844;53.128;17.958;2023-10-13T08:50:50;100943.30;;;12.13;80.13
79374;BME280;68844;53.128;17.958;2023-10-13T08:53:22;100944.23;;;12.26;80.18
79374;BME280;68844;53.128;17.958;2023-10-13T08:56:11;100949.23;;;12.31;79.63
79374;BME280;68844;53.128;17.958;2023-10-13T08:58:46;100946.10;;;12.42;79.83
79374;BME280;68844;53.128;17.958;2023-10-13T09:01:28;100951.23;;;12.56;80.11
79374;BME280;68844;53.128;17.958;2023-10-13T09:04:19;100952.79;;;12.56;80.07
79374;BME280;68844;53.128;17.958;2023-10-13T09:07:05;100949.59;;;12.57;80.57
79374;BME280;68844;53.128;17.958;2023-10-13T09:09:33;100944.63;;;12.79;79.68
79374;BME280;68844;53.128;17.958;2023-10-13T09:12:11;100941.98;;;12.91;79.80
79374;BME280;68844;53.128;17.958;2023-10-13T09:14:39;100946.22;;;12.96;79.37
79374;BME280;68844;53.128;17.958;2023-10-13T09:17:14;100951.98;;;12.86;79.99
79374;BME280;68844;53.128;17.958;2023-10-13T09:22:47;100944.45;;;13.15;79.68
79374;BME280;68844;53.128;17.958;2023-10-13T09:25:35;100934.18;;;13.18;79.62
79374;BME280;68844;53.128;17.958;2023-10-13T09:28:10;100930.70;;;13.36;79.05
79374;BME280;68844;53.128;17.958;2023-10-13T09:30:44;100926.09;;;13.53;79.26
79374;BME280;68844;53.128;17.958;2023-10-13T09:33:12;100918.35;;;13.73;78.18
79374;BME280;68844;53.128;17.958;2023-10-13T09:35:47;100909.82;;;13.87;77.61
79374;BME280;68844;53.128;17.958;2023-10-13T09:38:17;100904.82;;;14.00;77.83
79374;BME280;68844;53.128;17.958;2023-10-13T09:40:44;100908.48;;;14.06;78.11
79374;BME280;68844;53.128;17.958;2023-10-13T09:43:17;100906.14;;;14.17;77.43
79374;BME280;68844;53.128;17.958;2023-10-13T09:45:48;100895.27;;;14.18;77.27
79374;BME280;68844;53.128;17.958;2023-10-13T09:48:36;100891.45;;;14.22;77.25
79374;BME280;68844;53.128;17.958;2023-10-13T09:51:12;100885.15;;;14.43;77.60
79374;BME280;68844;53.128;17.958;2023-10-13T09:53:41;100882.48;;;14.49;76.95
79374;BME280;68844;53.128;17.958;2023-10-13T09:56:17;100878.40;;;14.54;76.73
79374;BME280;68844;53.128;17.958;2023-10-13T09:58:52;100875.38;;;14.59;76.13
79374;BME280;68844;53.128;17.958;2023-10-13T10:01:27;100865.54;;;14.60;76.12
79374;BME280;68844;53.128;17.958;2023-10-13T10:04:08;100856.20;;;14.67;76.52
79374;BME280;68844;53.128;17.958;2023-10-13T10:06:38;100855.05;;;14.77;76.20
79374;BME280;68844;53.128;17.958;2023-10-13T10:09:07;100848.48;;;14.94;76.50
79374;BME280;68844;53.128;17.958;2023-10-13T10:12:06;100848.63;;;15.11;76.09
79374;BME280;68844;53.128;17.958;2023-10-13T10:17:47;100827.76;;;15.15;75.32
79374;BME280;68844;53.128;17.958;2023-10-13T10:20:16;100824.59;;;15.43;74.08
79374;BME280;68844;53.128;17.958;2023-10-13T10:23:00;100818.55;;;15.41;75.10
79374;BME280;68844;53.128;17.958;2023-10-13T10:25:34;100816.96;;;15.57;74.13
79374;BME280;68844;53.128;17.958;2023-10-13T10:28:03;100816.30;;;15.49;74.66
79374;BME280;68844;53.128;17.958;2023-10-13T10:30:36;100816.52;;;15.49;74.30
79374;BME280;68844;53.128;17.958;2023-10-13T10:33:06;100807.13;;;15.42;74.61
79374;BME280;68844;53.128;17.958;2023-10-13T10:35:45;100805.71;;;15.37;74.99
79374;BME280;68844;53.128;17.958;2023-10-13T10:38:17;100801.49;;;15.39;75.18
79374;BME280;68844;53.128;17.958;2023-10-13T10:41:00;100792.10;;;15.50;74.98
79374;BME280;68844;53.128;17.958;2023-10-13T10:46:17;100781.06;;;16.01;74.36
79374;BME280;68844;53.128;17.958;2023-10-13T10:48:45;100774.21;;;16.42;73.83
79374;BME280;68844;53.128;17.958;2023-10-13T10:51:13;100770.19;;;16.76;72.41
79374;BME280;68844;53.128;17.958;2023-10-13T10:53:42;100766.10;;;17.10;72.20
79374;BME280;68844;53.128;17.958;2023-10-13T10:56:14;100752.76;;;17.14;69.94
79374;BME280;68844;53.128;17.958;2023-10-13T10:58:50;100753.61;;;17.16;70.69
79374;BME280;68844;53.128;17.958;2023-10-13T11:01:25;100747.02;;;17.43;69.25
79374;BME280;68844;53.128;17.958;2023-10-13T11:04:05;100747.77;;;17.78;68.65
79374;BME280;68844;53.128;17.958;2023-10-13T11:06:36;100741.45;;;17.99;68.64
79374;BME280;68844;53.128;17.958;2023-10-13T11:09:08;100740.52;;;18.37;68.40
79374;BME280;68844;53.128;17.958;2023-10-13T11:11:47;100738.83;;;19.41;66.17
79374;BME280;68844;53.128;17.958;2023-10-13T11:14:22;100726.74;;;20.40;63.30
79374;BME280;68844;53.128;17.958;2023-10-13T11:16:50;100725.45;;;20.57;61.13
79374;BME280;68844;53.128;17.958;2023-10-13T11:19:17;100724.48;;;20.91;60.68
79374;BME280;68844;53.128;17.958;2023-10-13T14:13:02;100448.63;;;17.90;75.63
79374;BME280;68844;53.128;17.958;2023-10-13T14:15:48;100443.11;;;17.79;76.36
79374;BME280;68844;53.128;17.958;2023-10-13T14:18:46;100434.89;;;17.75;76.40
79374;BME280;68844;53.128;17.958;2023-10-13T16:18:26;100278.39;;;17.25;77.82
79374;BME280;68844;53.128;17.958;2023-10-13T16:20:53;100279.05;;;17.22;77.94
79374;BME280;68844;53.128;17.958;2023-10-13T16:23:21;100274.72;;;17.18;78.21
79374;BME280;68844;53.128;17.958;2023-10-13T16:25:51;100273.27;;;17.21;77.98
79374;BME280;68844;53.128;17.958;2023-10-13T16:28:23;100274.04;;;17.22;78.26
79374;BME280;68844;53.128;17.958;2023-10-13T16:30:51;100272.48;;;17.22;78.46
79374;BME280;68844;53.128;17.958;2023-10-13T16:33:21;100277.33;;;17.15;78.33
79374;BME280;68844;53.128;17.958;2023-10-13T16:35:49;100272.83;;;17.14;78.13
79374;BME280;68844;53.128;17.958;2023-10-13T16:38:20;100274.62;;;17.18;78.66
79374;BME280;68844;53.128;17.958;2023-10-13T16:40:54;100267.29;;;17.20;78.55
79374;BME280;68844;53.128;17.958;2023-10-13T16:43:21;100256.24;;;17.18;78.36
79374;BME280;68844;53.128;17.958;2023-10-13T16:45:49;100256.90;;;17.13;78.44
79374;BME280;68844;53.128;17.958;2023-10-13T16:48:16;100251.55;;;17.17;78.45
79374;BME280;68844;53.128;17.958;2023-10-13T16:50:43;100248.29;;;17.19;78.62
79374;BME280;68844;53.128;17.958;2023-10-13T16:53:14;100246.38;;;17.21;78.56
79374;BME280;68844;53.128;17.958;2023-10-13T16:55:41;100239.24;;;17.21;78.36
79374;BME280;68844;53.128;17.958;2023-10-13T16:58:13;100231.89;;;17.24;78.65
79374;BME280;68844;53.128;17.958;2023-10-13T17:00:45;100242.75;;;17.22;78.77
79374;BME280;68844;53.128;17.958;2023-10-13T17:03:19;100237.14;;;17.19;78.73
79374;BME280;68844;53.128;17.958;2023-10-13T17:05:58;100233.23;;;17.19;79.09
79374;BME280;68844;53.128;17.958;2023-10-13T17:08:29;100229.35;;;17.20;79.22
79374;BME280;68844;53.128;17.958;2023-10-13T17:10:56;100232.25;;;17.24;78.90
79374;BME280;68844;53.128;17.958;2023-10-13T17:13:33;100225.71;;;17.25;79.06
79374;BME280;68844;53.128;17.958;2023-10-13T17:16:09;100225.20;;;17.23;79.14
79374;BME280;68844;53.128;17.958;2023-10-13T17:18:38;100222.93;;;17.24;79.13
79374;BME280;68844;53.128;17.958;2023-10-13T17:21:19;100216.64;;;17.25;79.28
79374;BME280;68844;53.128;17.958;2023-10-13T17:23:49;100210.80;;;17.25;79.54
79374;BME280;68844;53.128;17.958;2023-10-13T17:26:40;100205.47;;;17.25;79.62
79374;BME280;68844;53.128;17.958;2023-10-13T19:51:11;100083.27;;;16.81;80.06
79374;BME280;68844;53.128;17.958;2023-10-13T19:53:44;100087.11;;;16.80;80.08
79374;BME280;68844;53.128;17.958;2023-10-13T19:56:15;100089.94;;;16.88;79.65
79374;BME280;68844;53.128;17.958;2023-10-13T19:58:47;100087.47;;;16.89;79.87
79374;BME280;68844;53.128;17.958;2023-10-13T20:01:19;100087.44;;;16.90;79.77
79374;BME280;68844;53.128;17.958;2023-10-13T20:03:55;100097.05;;;16.92;79.69
79374;BME280;68844;53.128;17.958;2023-10-13T20:08:51;100098.70;;;17.02;79.50
79374;BME280;68844;53.128;17.958;2023-10-13T20:11:18;100097.09;;;17.06;79.42
79374;BME280;68844;53.128;17.958;2023-10-13T20:13:46;100093.97;;;17.09;78.79
79374;BME280;68844;53.128;17.958;2023-10-13T20:16:14;100093.48;;;17.10;78.82
79374;BME280;68844;53.128;17.958;2023-10-13T20:18:49;100083.65;;;17.18;78.44
79374;BME280;68844;53.128;17.958;2023-10-13T20:21:21;100086.54;;;17.23;78.45
79374;BME280;68844;53.128;17.958;2023-10-13T20:23:51;100081.23;;;17.29;77.65
79374;BME280;68844;53.128;17.958;2023-10-13T20:26:18;100077.79;;;17.33;77.70
79374;BME280;68844;53.128;17.958;2023-10-13T20:28:46;100071.98;;;17.41;77.24
79374;BME280;68844;53.128;17.958;2023-10-13T20:31:13;100070.78;;;17.48;76.90
79374;BME280;68844;53.128;17.958;2023-10-13T20:33:40;100071.29;;;17.52;76.66
79374;BME280;68844;53.128;17.958;2023-10-13T20:36:10;100081.94;;;17.54;76.34
79374;BME280;68844;53.128;17.958;2023-10-13T20:38:37;100069.81;;;17.60;76.53
79374;BME280;68844;53.128;17.958;2023-10-13T20:41:05;100061.63;;;17.58;77.00
79374;BME280;68844;53.128;17.958;2023-10-13T20:43:35;100058.07;;;17.49;77.13
79374;BME280;68844;53.128;17.958;2023-10-13T20:46:06;100055.97;;;17.39;77.47
79374;BME280;68844;53.128;17.958;2023-10-13T20:48:33;100058.44;;;17.34;77.65
79374;BME280;68844;53.128;17.958;2023-10-13T20:51:01;100055.88;;;17.31;77.68